sensor_id;sensor_type;location;lat;lon;timestamp;P1;durP1;ratioP1;P2;durP2;ratioP2
49828;SDS011;35723;51.194;5.112;2023-12-22T00:01:39;29.05;;;4.10;;
49828;SDS011;35723;51.194;5.112;2023-12-22T00:04:05;19.98;;;2.97;;
49828;SDS011;35723;51.194;5.112;2023-12-22T00:06:32;22.65;;;3.15;;
49828;SDS011;35723;51.194;5.112;2023-12-22T00:08:57;24.23;;;3.53;;
49828;SDS011;35723;51.194;5.112;2023-12-22T00:11:23;25.80;;;4.03;;
49828;SDS011;35723;51.194;5.112;2023-12-22T00:13:49;29.67;;;4.65;;
49828;SDS011;35723;51.194;5.112;2023-12-22T00:16:14;28.48;;;3.88;;
49828;SDS011;35723;51.194;5.112;2023-12-22T00:18:40;26.63;;;4.78;;
49828;SDS011;35723;51.194;5.112;2023-12-22T00:21:09;28.95;;;4.32;;
49828;SDS011;35723;51.194;5.112;2023-12-22T00:23:38;25.88;;;4.03;;
49828;SDS011;35723;51.194;5.112;2023-12-22T00:26:04;26.35;;;4.43;;
49828;SDS011;35723;51.194;5.112;2023-12-22T00:28:30;29.48;;;4.93;;
49828;SDS011;35723;51.194;5.112;2023-12-22T00:30:59;22.77;;;3.85;;
49828;SDS011;35723;51.194;5.112;2023-12-22T00:33:25;27.73;;;3.70;;
49828;SDS011;35723;51.194;5.112;2023-12-22T00:35:51;27.38;;;3.88;;
49828;SDS011;35723;51.194;5.112;2023-12-22T00:38:17;30.30;;;3.63;;
49828;SDS011;35723;51.194;5.112;2023-12-22T00:40:43;25.88;;;3.50;;
49828;SDS011;35723;51.194;5.112;2023-12-22T00:43:08;28.73;;;3.50;;
49828;SDS011;35723;51.194;5.112;2023-12-22T00:45:34;25.67;;;3.45;;
49828;SDS011;35723;51.194;5.112;2023-12-22T00:47:59;26.98;;;3.80;;
49828;SDS011;35723;51.194;5.112;2023-12-22T00:50:25;26.27;;;3.60;;
49828;SDS011;35723;51.194;5.112;2023-12-22T00:52:51;25.52;;;3.70;;
49828;SDS011;35723;51.194;5.112;2023-12-22T00:55:16;20.85;;;3.22;;
49828;SDS011;35723;51.194;5.112;2023-12-22T00:57:42;32.38;;;4.00;;
49828;SDS011;35723;51.194;5.112;2023-12-22T01:00:08;19.77;;;3.47;;
49828;SDS011;35723;51.194;5.112;2023-12-22T01:02:37;20.05;;;2.75;;
49828;SDS011;35723;51.194;5.112;2023-12-22T01:05:03;16.38;;;2.92;;
49828;SDS011;35723;51.194;5.112;2023-12-22T01:07:29;23.55;;;2.90;;
49828;SDS011;35723;51.194;5.112;2023-12-22T01:09:55;19.70;;;2.92;;
49828;SDS011;35723;51.194;5.112;2023-12-22T01:12:21;19.85;;;2.85;;
49828;SDS011;35723;51.194;5.112;2023-12-22T01:14:46;25.95;;;3.35;;
49828;SDS011;35723;51.194;5.112;2023-12-22T01:17:15;22.52;;;3.20;;
49828;SDS011;35723;51.194;5.112;2023-12-22T01:19:41;20.40;;;3.22;;
49828;SDS011;35723;51.194;5.112;2023-12-22T01:22:07;21.15;;;3.17;;
49828;SDS011;35723;51.194;5.112;2023-12-22T01:24:32;21.90;;;3.20;;
49828;SDS011;35723;51.194;5.112;2023-12-22T01:26:58;23.55;;;3.70;;
49828;SDS011;35723;51.194;5.112;2023-12-22T01:29:24;26.27;;;3.85;;
49828;SDS011;35723;51.194;5.112;2023-12-22T01:31:50;23.05;;;3.25;;
49828;SDS011;35723;51.194;5.112;2023-12-22T01:34:15;23.70;;;3.00;;
49828;SDS011;35723;51.194;5.112;2023-12-22T01:36:41;19.63;;;3.42;;
49828;SDS011;35723;51.194;5.112;2023-12-22T01:39:06;24.38;;;3.22;;
49828;SDS011;35723;51.194;5.112;2023-12-22T01:41:32;24.35;;;3.80;;
49828;SDS011;35723;51.194;5.112;2023-12-22T01:43:58;22.95;;;4.07;;
49828;SDS011;35723;51.194;5.112;2023-12-22T01:46:23;25.45;;;2.92;;
49828;SDS011;35723;51.194;5.112;2023-12-22T01:48:49;30.05;;;3.42;;
49828;SDS011;35723;51.194;5.112;2023-12-22T01:51:15;25.13;;;3.58;;
49828;SDS011;35723;51.194;5.112;2023-12-22T01:53:42;29.02;;;3.53;;
49828;SDS011;35723;51.194;5.112;2023-12-22T01:56:09;28.33;;;3.30;;
49828;SDS011;35723;51.194;5.112;2023-12-22T01:58:34;21.60;;;3.28;;
49828;SDS011;35723;51.194;5.112;2023-12-22T02:01:02;25.15;;;3.63;;
49828;SDS011;35723;51.194;5.112;2023-12-22T02:03:28;29.10;;;3.30;;
49828;SDS011;35723;51.194;5.112;2023-12-22T02:05:54;28.48;;;3.70;;
49828;SDS011;35723;51.194;5.112;2023-12-22T02:08:20;28.63;;;4.38;;
49828;SDS011;35723;51.194;5.112;2023-12-22T02:10:47;25.75;;;3.50;;
49828;SDS011;35723;51.194;5.112;2023-12-22T02:13:13;22.58;;;3.17;;
49828;SDS011;35723;51.194;5.112;2023-12-22T02:15:39;20.83;;;2.70;;
49828;SDS011;35723;51.194;5.112;2023-12-22T02:18:12;19.73;;;2.55;;
49828;SDS011;35723;51.194;5.112;2023-12-22T02:20:44;23.58;;;2.80;;
49828;SDS011;35723;51.194;5.112;2023-12-22T02:23:10;19.67;;;3.00;;
49828;SDS011;35723;51.194;5.112;2023-12-22T02:25:35;16.20;;;2.72;;
49828;SDS011;35723;51.194;5.112;2023-12-22T02:28:02;24.95;;;3.47;;
49828;SDS011;35723;51.194;5.112;2023-12-22T02:30:39;22.05;;;2.55;;
49828;SDS011;35723;51.194;5.112;2023-12-22T02:33:16;24.52;;;2.90;;
49828;SDS011;35723;51.194;5.112;2023-12-22T02:35:43;23.55;;;3.30;;
49828;SDS011;35723;51.194;5.112;2023-12-22T02:38:10;24.15;;;3.40;;
49828;SDS011;35723;51.194;5.112;2023-12-22T02:40:37;25.58;;;3.60;;
49828;SDS011;35723;51.194;5.112;2023-12-22T02:43:04;27.02;;;4.05;;
49828;SDS011;35723;51.194;5.112;2023-12-22T02:45:31;32.85;;;4.47;;
49828;SDS011;35723;51.194;5.112;2023-12-22T02:47:57;27.30;;;3.90;;
49828;SDS011;35723;51.194;5.112;2023-12-22T02:50:23;24.58;;;3.35;;
49828;SDS011;35723;51.194;5.112;2023-12-22T02:52:49;31.75;;;4.00;;
49828;SDS011;35723;51.194;5.112;2023-12-22T02:55:14;30.17;;;3.67;;
49828;SDS011;35723;51.194;5.112;2023-12-22T02:57:40;25.45;;;3.50;;
49828;SDS011;35723;51.194;5.112;2023-12-22T03:00:06;30.10;;;4.20;;
49828;SDS011;35723;51.194;5.112;2023-12-22T03:02:32;21.85;;;3.45;;
49828;SDS011;35723;51.194;5.112;2023-12-22T03:04:57;28.50;;;3.78;;
49828;SDS011;35723;51.194;5.112;2023-12-22T03:07:23;28.27;;;3.33;;
49828;SDS011;35723;51.194;5.112;2023-12-22T03:09:49;25.02;;;3.55;;
49828;SDS011;35723;51.194;5.112;2023-12-22T03:12:14;24.95;;;4.03;;
49828;SDS011;35723;51.194;5.112;2023-12-22T03:14:40;25.80;;;3.40;;
49828;SDS011;35723;51.194;5.112;2023-12-22T03:17:06;24.33;;;3.63;;
49828;SDS011;35723;51.194;5.112;2023-12-22T03:19:32;18.77;;;2.88;;
49828;SDS011;35723;51.194;5.112;2023-12-22T03:21:58;18.92;;;3.38;;
49828;SDS011;35723;51.194;5.112;2023-12-22T03:24:25;25.88;;;3.72;;
49828;SDS011;35723;51.194;5.112;2023-12-22T03:26:51;25.13;;;3.55;;
49828;SDS011;35723;51.194;5.112;2023-12-22T03:29:17;27.17;;;4.00;;
49828;SDS011;35723;51.194;5.112;2023-12-22T03:31:44;23.05;;;3.38;;
49828;SDS011;35723;51.194;5.112;2023-12-22T03:34:10;31.20;;;4.03;;
49828;SDS011;35723;51.194;5.112;2023-12-22T03:36:36;28.30;;;3.72;;
49828;SDS011;35723;51.194;5.112;2023-12-22T03:39:02;28.67;;;3.85;;
49828;SDS011;35723;51.194;5.112;2023-12-22T03:41:28;30.48;;;3.58;;
49828;SDS011;35723;51.194;5.112;2023-12-22T03:43:55;28.15;;;4.43;;
49828;SDS011;35723;51.194;5.112;2023-12-22T03:46:21;29.98;;;4.03;;
49828;SDS011;35723;51.194;5.112;2023-12-22T03:48:47;23.08;;;3.90;;
49828;SDS011;35723;51.194;5.112;2023-12-22T03:51:12;22.90;;;3.60;;
49828;SDS011;35723;51.194;5.112;2023-12-22T03:53:40;26.10;;;3.15;;
49828;SDS011;35723;51.194;5.112;2023-12-22T03:56:06;27.98;;;3.50;;
49828;SDS011;35723;51.194;5.112;2023-12-22T03:58:33;23.42;;;3.75;;
49828;SDS011;35723;51.194;5.112;2023-12-22T04:01:02;26.98;;;3.90;;
49828;SDS011;35723;51.194;5.112;2023-12-22T04:03:29;26.40;;;3.55;;
49828;SDS011;35723;51.194;5.112;2023-12-22T04:05:54;25.33;;;3.67;;
49828;SDS011;35723;51.194;5.112;2023-12-22T04:08:20;32.17;;;3.90;;
49828;SDS011;35723;51.194;5.112;2023-12-22T04:10:46;28.13;;;4.25;;
49828;SDS011;35723;51.194;5.112;2023-12-22T04:13:12;33.47;;;3.80;;
49828;SDS011;35723;51.194;5.112;2023-12-22T04:15:38;26.48;;;4.10;;
49828;SDS011;35723;51.194;5.112;2023-12-22T04:18:03;28.73;;;3.72;;
49828;SDS011;35723;51.194;5.112;2023-12-22T04:20:29;31.15;;;3.90;;
49828;SDS011;35723;51.194;5.112;2023-12-22T04:22:55;27.00;;;3.88;;
49828;SDS011;35723;51.194;5.112;2023-12-22T04:25:20;29.17;;;3.70;;
49828;SDS011;35723;51.194;5.112;2023-12-22T04:27:48;29.35;;;3.70;;
49828;SDS011;35723;51.194;5.112;2023-12-22T04:30:14;25.60;;;4.13;;
49828;SDS011;35723;51.194;5.112;2023-12-22T04:32:40;31.00;;;3.85;;
49828;SDS011;35723;51.194;5.112;2023-12-22T04:35:06;28.75;;;4.80;;
49828;SDS011;35723;51.194;5.112;2023-12-22T04:37:32;32.47;;;4.60;;
49828;SDS011;35723;51.194;5.112;2023-12-22T04:39:58;32.42;;;4.47;;
49828;SDS011;35723;51.194;5.112;2023-12-22T04:42:23;31.90;;;4.63;;
49828;SDS011;35723;51.194;5.112;2023-12-22T04:44:50;35.15;;;5.38;;
49828;SDS011;35723;51.194;5.112;2023-12-22T04:47:16;35.80;;;5.43;;
49828;SDS011;35723;51.194;5.112;2023-12-22T04:49:42;30.95;;;4.60;;
49828;SDS011;35723;51.194;5.112;2023-12-22T04:52:07;40.75;;;4.95;;
49828;SDS011;35723;51.194;5.112;2023-12-22T04:54:33;38.20;;;5.75;;
49828;SDS011;35723;51.194;5.112;2023-12-22T04:56:59;34.92;;;4.90;;
49828;SDS011;35723;51.194;5.112;2023-12-22T04:59:25;39.35;;;5.10;;
49828;SDS011;35723;51.194;5.112;2023-12-22T05:01:50;32.97;;;4.25;;
49828;SDS011;35723;51.194;5.112;2023-12-22T05:04:16;40.10;;;5.05;;
49828;SDS011;35723;51.194;5.112;2023-12-22T05:06:42;36.05;;;5.10;;
49828;SDS011;35723;51.194;5.112;2023-12-22T05:09:08;33.88;;;4.60;;
49828;SDS011;35723;51.194;5.112;2023-12-22T05:11:34;30.92;;;4.35;;
49828;SDS011;35723;51.194;5.112;2023-12-22T05:14:00;37.85;;;4.97;;
49828;SDS011;35723;51.194;5.112;2023-12-22T05:16:25;35.75;;;5.20;;
49828;SDS011;35723;51.194;5.112;2023-12-22T05:18:51;33.75;;;4.70;;
49828;SDS011;35723;51.194;5.112;2023-12-22T05:21:16;39.13;;;5.50;;
49828;SDS011;35723;51.194;5.112;2023-12-22T05:23:42;35.97;;;5.65;;
49828;SDS011;35723;51.194;5.112;2023-12-22T05:26:08;37.53;;;5.32;;
49828;SDS011;35723;51.194;5.112;2023-12-22T05:28:33;36.15;;;5.38;;
49828;SDS011;35723;51.194;5.112;2023-12-22T05:30:59;41.95;;;5.57;;
49828;SDS011;35723;51.194;5.112;2023-12-22T05:33:25;36.47;;;5.25;;
49828;SDS011;35723;51.194;5.112;2023-12-22T05:35:51;42.05;;;5.93;;
49828;SDS011;35723;51.194;5.112;2023-12-22T05:38:17;37.40;;;5.47;;
49828;SDS011;35723;51.194;5.112;2023-12-22T05:40:43;50.30;;;6.18;;
49828;SDS011;35723;51.194;5.112;2023-12-22T05:43:08;39.90;;;5.55;;
49828;SDS011;35723;51.194;5.112;2023-12-22T05:45:34;40.30;;;5.53;;
49828;SDS011;35723;51.194;5.112;2023-12-22T05:47:59;42.00;;;5.88;;
49828;SDS011;35723;51.194;5.112;2023-12-22T05:50:25;38.72;;;5.75;;
49828;SDS011;35723;51.194;5.112;2023-12-22T05:52:51;34.90;;;5.97;;
49828;SDS011;35723;51.194;5.112;2023-12-22T05:55:17;44.67;;;6.15;;
49828;SDS011;35723;51.194;5.112;2023-12-22T05:57:42;39.78;;;5.85;;
49828;SDS011;35723;51.194;5.112;2023-12-22T06:00:08;37.53;;;5.55;;
49828;SDS011;35723;51.194;5.112;2023-12-22T06:02:36;39.97;;;5.97;;
49828;SDS011;35723;51.194;5.112;2023-12-22T06:05:01;39.80;;;6.35;;
49828;SDS011;35723;51.194;5.112;2023-12-22T06:07:28;37.97;;;5.90;;
49828;SDS011;35723;51.194;5.112;2023-12-22T06:09:54;40.25;;;5.35;;
49828;SDS011;35723;51.194;5.112;2023-12-22T06:12:19;41.13;;;5.50;;
49828;SDS011;35723;51.194;5.112;2023-12-22T06:14:45;40.08;;;5.93;;
49828;SDS011;35723;51.194;5.112;2023-12-22T06:17:10;39.42;;;6.28;;
49828;SDS011;35723;51.194;5.112;2023-12-22T06:19:36;45.50;;;6.03;;
49828;SDS011;35723;51.194;5.112;2023-12-22T06:22:02;41.35;;;5.57;;
49828;SDS011;35723;51.194;5.112;2023-12-22T06:24:28;43.25;;;5.82;;
49828;SDS011;35723;51.194;5.112;2023-12-22T06:26:53;36.67;;;5.50;;
49828;SDS011;35723;51.194;5.112;2023-12-22T06:29:19;39.67;;;5.45;;
49828;SDS011;35723;51.194;5.112;2023-12-22T06:31:45;43.58;;;6.15;;
49828;SDS011;35723;51.194;5.112;2023-12-22T06:34:15;42.53;;;6.28;;
49828;SDS011;35723;51.194;5.112;2023-12-22T06:36:41;40.13;;;5.88;;
49828;SDS011;35723;51.194;5.112;2023-12-22T06:39:07;40.03;;;5.68;;
49828;SDS011;35723;51.194;5.112;2023-12-22T06:41:33;42.63;;;5.57;;
49828;SDS011;35723;51.194;5.112;2023-12-22T06:43:59;35.47;;;5.78;;
49828;SDS011;35723;51.194;5.112;2023-12-22T06:46:25;46.08;;;7.05;;
49828;SDS011;35723;51.194;5.112;2023-12-22T06:48:51;40.45;;;5.72;;
49828;SDS011;35723;51.194;5.112;2023-12-22T06:51:24;35.92;;;5.38;;
49828;SDS011;35723;51.194;5.112;2023-12-22T06:53:52;36.00;;;5.78;;
49828;SDS011;35723;51.194;5.112;2023-12-22T06:56:19;38.70;;;5.65;;
49828;SDS011;35723;51.194;5.112;2023-12-22T06:58:47;33.95;;;5.38;;
49828;SDS011;35723;51.194;5.112;2023-12-22T07:01:30;42.33;;;5.38;;
49828;SDS011;35723;51.194;5.112;2023-12-22T07:03:56;36.00;;;5.50;;
49828;SDS011;35723;51.194;5.112;2023-12-22T07:06:25;29.73;;;4.82;;
49828;SDS011;35723;51.194;5.112;2023-12-22T07:08:56;32.08;;;4.88;;
49828;SDS011;35723;51.194;5.112;2023-12-22T07:11:34;43.28;;;5.47;;
49828;SDS011;35723;51.194;5.112;2023-12-22T07:13:59;35.55;;;5.60;;
49828;SDS011;35723;51.194;5.112;2023-12-22T07:16:25;35.78;;;5.10;;
49828;SDS011;35723;51.194;5.112;2023-12-22T07:18:51;40.97;;;5.78;;
49828;SDS011;35723;51.194;5.112;2023-12-22T07:21:16;33.58;;;5.05;;
49828;SDS011;35723;51.194;5.112;2023-12-22T07:23:43;35.78;;;5.65;;
49828;SDS011;35723;51.194;5.112;2023-12-22T07:26:09;36.55;;;5.22;;
49828;SDS011;35723;51.194;5.112;2023-12-22T07:28:35;40.60;;;5.13;;
49828;SDS011;35723;51.194;5.112;2023-12-22T07:31:01;36.33;;;4.97;;
49828;SDS011;35723;51.194;5.112;2023-12-22T07:33:26;29.92;;;4.53;;
49828;SDS011;35723;51.194;5.112;2023-12-22T07:35:52;36.80;;;5.32;;
49828;SDS011;35723;51.194;5.112;2023-12-22T07:38:17;31.10;;;4.25;;
49828;SDS011;35723;51.194;5.112;2023-12-22T07:40:43;30.33;;;4.80;;
49828;SDS011;35723;51.194;5.112;2023-12-22T07:43:08;30.38;;;5.00;;
49828;SDS011;35723;51.194;5.112;2023-12-22T07:45:34;36.75;;;5.20;;
49828;SDS011;35723;51.194;5.112;2023-12-22T07:48:00;31.98;;;4.93;;
49828;SDS011;35723;51.194;5.112;2023-12-22T07:50:25;27.88;;;4.70;;
49828;SDS011;35723;51.194;5.112;2023-12-22T07:52:52;30.25;;;4.43;;
49828;SDS011;35723;51.194;5.112;2023-12-22T07:55:18;31.45;;;5.15;;
49828;SDS011;35723;51.194;5.112;2023-12-22T07:57:43;27.83;;;4.00;;
49828;SDS011;35723;51.194;5.112;2023-12-22T08:00:10;22.25;;;3.58;;
49828;SDS011;35723;51.194;5.112;2023-12-22T08:02:36;24.95;;;3.72;;
49828;SDS011;35723;51.194;5.112;2023-12-22T08:05:02;28.15;;;3.70;;
49828;SDS011;35723;51.194;5.112;2023-12-22T08:07:28;24.17;;;3.70;;
49828;SDS011;35723;51.194;5.112;2023-12-22T08:09:54;22.80;;;3.65;;
49828;SDS011;35723;51.194;5.112;2023-12-22T08:12:20;29.40;;;4.20;;
49828;SDS011;35723;51.194;5.112;2023-12-22T08:14:46;24.30;;;3.20;;
49828;SDS011;35723;51.194;5.112;2023-12-22T08:17:12;23.50;;;3.40;;
49828;SDS011;35723;51.194;5.112;2023-12-22T08:19:38;25.95;;;3.90;;
49828;SDS011;35723;51.194;5.112;2023-12-22T08:22:07;21.95;;;3.58;;
49828;SDS011;35723;51.194;5.112;2023-12-22T08:24:38;25.95;;;3.70;;
49828;SDS011;35723;51.194;5.112;2023-12-22T08:27:04;22.13;;;3.33;;
49828;SDS011;35723;51.194;5.112;2023-12-22T08:29:31;23.80;;;3.60;;
49828;SDS011;35723;51.194;5.112;2023-12-22T08:31:57;24.67;;;4.47;;
49828;SDS011;35723;51.194;5.112;2023-12-22T08:34:23;24.25;;;3.55;;
49828;SDS011;35723;51.194;5.112;2023-12-22T08:36:49;23.75;;;3.35;;
49828;SDS011;35723;51.194;5.112;2023-12-22T08:39:14;19.83;;;3.67;;
49828;SDS011;35723;51.194;5.112;2023-12-22T08:41:40;22.77;;;3.92;;
49828;SDS011;35723;51.194;5.112;2023-12-22T08:44:06;22.60;;;3.35;;
49828;SDS011;35723;51.194;5.112;2023-12-22T08:46:33;23.60;;;4.63;;
49828;SDS011;35723;51.194;5.112;2023-12-22T08:48:59;21.42;;;3.72;;
49828;SDS011;35723;51.194;5.112;2023-12-22T08:51:28;24.60;;;4.25;;
49828;SDS011;35723;51.194;5.112;2023-12-22T08:53:54;21.88;;;3.92;;
49828;SDS011;35723;51.194;5.112;2023-12-22T08:56:23;21.33;;;4.25;;
49828;SDS011;35723;51.194;5.112;2023-12-22T08:58:51;22.45;;;4.60;;
49828;SDS011;35723;51.194;5.112;2023-12-22T09:01:18;20.98;;;4.53;;
49828;SDS011;35723;51.194;5.112;2023-12-22T09:03:44;24.52;;;5.07;;
49828;SDS011;35723;51.194;5.112;2023-12-22T09:06:14;20.52;;;5.28;;
49828;SDS011;35723;51.194;5.112;2023-12-22T09:08:43;19.17;;;5.18;;
49828;SDS011;35723;51.194;5.112;2023-12-22T09:11:13;21.42;;;5.03;;
49828;SDS011;35723;51.194;5.112;2023-12-22T09:13:41;16.75;;;4.57;;
49828;SDS011;35723;51.194;5.112;2023-12-22T09:16:07;18.65;;;4.95;;
49828;SDS011;35723;51.194;5.112;2023-12-22T09:18:33;14.25;;;4.38;;
49828;SDS011;35723;51.194;5.112;2023-12-22T09:20:59;21.70;;;4.53;;
49828;SDS011;35723;51.194;5.112;2023-12-22T09:23:25;24.38;;;5.30;;
49828;SDS011;35723;51.194;5.112;2023-12-22T09:25:51;20.88;;;4.90;;
49828;SDS011;35723;51.194;5.112;2023-12-22T09:28:17;14.95;;;4.22;;
49828;SDS011;35723;51.194;5.112;2023-12-22T09:30:43;14.63;;;4.15;;
49828;SDS011;35723;51.194;5.112;2023-12-22T09:33:09;16.70;;;4.43;;
49828;SDS011;35723;51.194;5.112;2023-12-22T09:35:34;13.93;;;4.05;;
49828;SDS011;35723;51.194;5.112;2023-12-22T09:38:00;15.13;;;4.10;;
49828;SDS011;35723;51.194;5.112;2023-12-22T09:40:26;20.20;;;3.88;;
49828;SDS011;35723;51.194;5.112;2023-12-22T09:42:55;10.82;;;3.38;;
49828;SDS011;35723;51.194;5.112;2023-12-22T09:45:23;16.55;;;3.40;;
49828;SDS011;35723;51.194;5.112;2023-12-22T09:47:49;12.32;;;3.10;;
49828;SDS011;35723;51.194;5.112;2023-12-22T09:50:16;10.85;;;2.92;;
49828;SDS011;35723;51.194;5.112;2023-12-22T09:52:43;13.45;;;3.03;;
49828;SDS011;35723;51.194;5.112;2023-12-22T09:55:12;13.98;;;2.88;;
49828;SDS011;35723;51.194;5.112;2023-12-22T09:57:38;14.07;;;3.03;;
49828;SDS011;35723;51.194;5.112;2023-12-22T10:00:08;13.05;;;3.28;;
49828;SDS011;35723;51.194;5.112;2023-12-22T10:02:35;11.27;;;2.63;;
49828;SDS011;35723;51.194;5.112;2023-12-22T10:05:02;17.00;;;2.78;;
49828;SDS011;35723;51.194;5.112;2023-12-22T10:07:30;9.73;;;2.50;;
49828;SDS011;35723;51.194;5.112;2023-12-22T10:09:56;10.93;;;2.63;;
49828;SDS011;35723;51.194;5.112;2023-12-22T10:12:22;7.85;;;2.15;;
49828;SDS011;35723;51.194;5.112;2023-12-22T10:14:49;9.82;;;2.15;;
49828;SDS011;35723;51.194;5.112;2023-12-22T10:17:16;8.68;;;2.20;;
49828;SDS011;35723;51.194;5.112;2023-12-22T10:19:42;8.80;;;2.30;;
49828;SDS011;35723;51.194;5.112;2023-12-22T10:22:08;10.63;;;2.38;;
49828;SDS011;35723;51.194;5.112;2023-12-22T10:24:40;12.18;;;2.60;;
49828;SDS011;35723;51.194;5.112;2023-12-22T10:27:07;11.27;;;2.63;;
49828;SDS011;35723;51.194;5.112;2023-12-22T10:29:34;16.02;;;2.90;;
49828;SDS011;35723;51.194;5.112;2023-12-22T10:32:03;15.95;;;2.90;;
49828;SDS011;35723;51.194;5.112;2023-12-22T10:34:30;13.23;;;3.15;;
49828;SDS011;35723;51.194;5.112;2023-12-22T10:36:56;13.60;;;3.05;;
49828;SDS011;35723;51.194;5.112;2023-12-22T10:39:26;18.75;;;3.25;;
49828;SDS011;35723;51.194;5.112;2023-12-22T10:41:59;12.68;;;2.97;;
49828;SDS011;35723;51.194;5.112;2023-12-22T10:44:28;13.27;;;3.45;;
49828;SDS011;35723;51.194;5.112;2023-12-22T10:46:54;16.33;;;3.40;;
49828;SDS011;35723;51.194;5.112;2023-12-22T10:49:21;14.77;;;3.33;;
49828;SDS011;35723;51.194;5.112;2023-12-22T10:51:48;16.45;;;3.30;;
49828;SDS011;35723;51.194;5.112;2023-12-22T10:54:14;19.00;;;3.97;;
49828;SDS011;35723;51.194;5.112;2023-12-22T10:56:40;16.35;;;3.03;;
49828;SDS011;35723;51.194;5.112;2023-12-22T10:59:06;17.35;;;2.60;;
49828;SDS011;35723;51.194;5.112;2023-12-22T11:01:32;16.98;;;2.90;;
49828;SDS011;35723;51.194;5.112;2023-12-22T11:04:02;15.60;;;2.50;;
49828;SDS011;35723;51.194;5.112;2023-12-22T11:06:30;17.17;;;2.95;;
49828;SDS011;35723;51.194;5.112;2023-12-22T11:09:08;19.50;;;2.95;;
49828;SDS011;35723;51.194;5.112;2023-12-22T11:11:36;14.18;;;2.53;;
49828;SDS011;35723;51.194;5.112;2023-12-22T11:14:04;12.73;;;2.05;;
49828;SDS011;35723;51.194;5.112;2023-12-22T11:16:31;18.20;;;3.40;;
49828;SDS011;35723;51.194;5.112;2023-12-22T11:19:01;11.45;;;2.50;;
49828;SDS011;35723;51.194;5.112;2023-12-22T11:21:28;15.13;;;2.65;;
49828;SDS011;35723;51.194;5.112;2023-12-22T11:23:55;15.57;;;2.53;;
49828;SDS011;35723;51.194;5.112;2023-12-22T11:26:23;15.48;;;2.58;;
49828;SDS011;35723;51.194;5.112;2023-12-22T11:28:50;11.77;;;2.50;;
49828;SDS011;35723;51.194;5.112;2023-12-22T11:31:16;14.75;;;2.85;;
49828;SDS011;35723;51.194;5.112;2023-12-22T11:33:43;14.68;;;2.50;;
49828;SDS011;35723;51.194;5.112;2023-12-22T11:36:11;12.43;;;2.28;;
49828;SDS011;35723;51.194;5.112;2023-12-22T11:38:37;14.18;;;2.70;;
49828;SDS011;35723;51.194;5.112;2023-12-22T11:41:05;17.85;;;3.47;;
49828;SDS011;35723;51.194;5.112;2023-12-22T11:43:33;13.73;;;2.30;;
49828;SDS011;35723;51.194;5.112;2023-12-22T11:46:03;14.63;;;2.50;;
49828;SDS011;35723;51.194;5.112;2023-12-22T11:48:29;14.27;;;2.50;;
49828;SDS011;35723;51.194;5.112;2023-12-22T11:50:55;14.43;;;2.80;;
49828;SDS011;35723;51.194;5.112;2023-12-22T11:53:25;11.35;;;2.20;;
49828;SDS011;35723;51.194;5.112;2023-12-22T11:56:04;14.60;;;2.30;;
49828;SDS011;35723;51.194;5.112;2023-12-22T12:01:18;15.63;;;2.28;;
49828;SDS011;35723;51.194;5.112;2023-12-22T12:08:40;18.42;;;2.70;;
49828;SDS011;35723;51.194;5.112;2023-12-22T12:11:07;15.73;;;2.25;;
49828;SDS011;35723;51.194;5.112;2023-12-22T12:13:33;15.57;;;2.28;;
49828;SDS011;35723;51.194;5.112;2023-12-22T12:15:59;25.15;;;2.92;;
49828;SDS011;35723;51.194;5.112;2023-12-22T12:18:29;14.32;;;2.35;;
49828;SDS011;35723;51.194;5.112;2023-12-22T12:20:56;14.90;;;2.20;;
49828;SDS011;35723;51.194;5.112;2023-12-22T12:23:26;12.77;;;2.38;;
49828;SDS011;35723;51.194;5.112;2023-12-22T12:25:53;14.90;;;2.10;;
49828;SDS011;35723;51.194;5.112;2023-12-22T12:28:29;13.07;;;2.90;;
49828;SDS011;35723;51.194;5.112;2023-12-22T12:31:05;12.32;;;2.20;;
49828;SDS011;35723;51.194;5.112;2023-12-22T12:33:31;16.92;;;2.50;;
49828;SDS011;35723;51.194;5.112;2023-12-22T12:35:59;19.05;;;2.35;;
49828;SDS011;35723;51.194;5.112;2023-12-22T12:38:36;14.23;;;2.10;;
49828;SDS011;35723;51.194;5.112;2023-12-22T12:41:32;14.80;;;2.30;;
49828;SDS011;35723;51.194;5.112;2023-12-22T12:44:03;15.80;;;2.40;;
49828;SDS011;35723;51.194;5.112;2023-12-22T12:46:34;13.05;;;1.95;;
49828;SDS011;35723;51.194;5.112;2023-12-22T12:49:07;17.33;;;2.30;;
49828;SDS011;35723;51.194;5.112;2023-12-22T12:51:37;13.57;;;2.10;;
49828;SDS011;35723;51.194;5.112;2023-12-22T12:54:04;18.60;;;2.33;;
49828;SDS011;35723;51.194;5.112;2023-12-22T12:59:25;15.65;;;2.58;;
49828;SDS011;35723;51.194;5.112;2023-12-22T13:01:51;20.17;;;2.30;;
49828;SDS011;35723;51.194;5.112;2023-12-22T13:04:18;12.93;;;2.38;;
49828;SDS011;35723;51.194;5.112;2023-12-22T13:06:50;19.25;;;2.38;;
49828;SDS011;35723;51.194;5.112;2023-12-22T13:09:16;16.03;;;2.40;;
49828;SDS011;35723;51.194;5.112;2023-12-22T13:11:43;12.32;;;1.95;;
49828;SDS011;35723;51.194;5.112;2023-12-22T13:14:11;14.00;;;2.38;;
49828;SDS011;35723;51.194;5.112;2023-12-22T13:16:40;19.55;;;2.60;;
49828;SDS011;35723;51.194;5.112;2023-12-22T13:19:06;14.45;;;2.67;;
49828;SDS011;35723;51.194;5.112;2023-12-22T13:21:32;15.32;;;2.33;;
49828;SDS011;35723;51.194;5.112;2023-12-22T13:24:07;12.23;;;2.03;;
49828;SDS011;35723;51.194;5.112;2023-12-22T13:26:38;16.70;;;2.20;;
49828;SDS011;35723;51.194;5.112;2023-12-22T13:29:05;19.52;;;3.10;;
49828;SDS011;35723;51.194;5.112;2023-12-22T13:31:31;16.88;;;2.30;;
49828;SDS011;35723;51.194;5.112;2023-12-22T13:34:00;17.25;;;2.47;;
49828;SDS011;35723;51.194;5.112;2023-12-22T13:36:26;19.25;;;2.28;;
49828;SDS011;35723;51.194;5.112;2023-12-22T13:38:52;13.98;;;2.67;;
49828;SDS011;35723;51.194;5.112;2023-12-22T13:41:18;17.80;;;2.50;;
49828;SDS011;35723;51.194;5.112;2023-12-22T13:43:44;15.38;;;2.20;;
49828;SDS011;35723;51.194;5.112;2023-12-22T13:46:11;15.63;;;2.28;;
49828;SDS011;35723;51.194;5.112;2023-12-22T13:48:37;17.52;;;2.38;;
49828;SDS011;35723;51.194;5.112;2023-12-22T13:51:03;13.63;;;2.15;;
49828;SDS011;35723;51.194;5.112;2023-12-22T13:53:29;15.65;;;2.25;;
49828;SDS011;35723;51.194;5.112;2023-12-22T13:55:55;16.08;;;2.80;;
49828;SDS011;35723;51.194;5.112;2023-12-22T13:58:21;16.92;;;2.42;;
49828;SDS011;35723;51.194;5.112;2023-12-22T14:00:47;14.68;;;2.58;;
49828;SDS011;35723;51.194;5.112;2023-12-22T14:03:13;19.77;;;2.75;;
49828;SDS011;35723;51.194;5.112;2023-12-22T14:05:41;12.70;;;2.38;;
49828;SDS011;35723;51.194;5.112;2023-12-22T14:08:07;16.77;;;2.30;;
49828;SDS011;35723;51.194;5.112;2023-12-22T14:10:33;18.40;;;2.95;;
49828;SDS011;35723;51.194;5.112;2023-12-22T14:12:59;15.13;;;2.30;;
49828;SDS011;35723;51.194;5.112;2023-12-22T14:15:25;13.48;;;2.28;;
49828;SDS011;35723;51.194;5.112;2023-12-22T14:17:54;13.15;;;2.15;;
49828;SDS011;35723;51.194;5.112;2023-12-22T14:20:20;16.98;;;2.40;;
49828;SDS011;35723;51.194;5.112;2023-12-22T14:22:46;20.23;;;2.40;;
49828;SDS011;35723;51.194;5.112;2023-12-22T14:25:11;14.60;;;2.33;;
49828;SDS011;35723;51.194;5.112;2023-12-22T14:27:37;11.30;;;2.10;;
49828;SDS011;35723;51.194;5.112;2023-12-22T14:30:03;14.82;;;2.47;;
49828;SDS011;35723;51.194;5.112;2023-12-22T14:32:29;16.02;;;2.28;;
49828;SDS011;35723;51.194;5.112;2023-12-22T14:34:55;13.80;;;2.00;;
49828;SDS011;35723;51.194;5.112;2023-12-22T14:37:21;12.80;;;1.95;;
49828;SDS011;35723;51.194;5.112;2023-12-22T14:39:49;9.63;;;1.90;;
49828;SDS011;35723;51.194;5.112;2023-12-22T14:42:15;12.13;;;1.88;;
49828;SDS011;35723;51.194;5.112;2023-12-22T14:44:41;11.40;;;2.13;;